sensor_id;sensor_type;location;lat;lon;timestamp;pressure;altitude;pressure_sealevel;temperature;humidity
28648;BME280;17137;51.494;-0.262;2023-04-23T00:00:27;50328.27;;;-145.72;100.00
28648;BME280;17137;51.494;-0.262;2023-04-23T00:00:58;50321.00;;;-145.72;100.00
28648;BME280;17137;51.494;-0.262;2023-04-23T00:01:29;50333.45;;;-145.72;100.00
28648;BME280;17137;51.494;-0.262;2023-04-23T00:02:01;50323.34;;;-145.72;100.00
28648;BME280;17137;51.494;-0.262;2023-04-23T00:02:33;50321.24;;;-145.72;100.00
28648;BME280;17137;51.494;-0.262;2023-04-23T00:03:06;50323.46;;;-145.72;100.00
28648;BME280;17137;51.494;-0.262;2023-04-23T00:03:38;50325.56;;;-145.72;100.00
28648;BME280;17137;51.494;-0.262;2023-04-23T00:04:11;50329.50;;;-145.72;100.00
28648;BME280;17137;51.494;-0.262;2023-04-23T00:04:49;50314.46;;;-145.72;100.00
28648;BME280;17137;51.494;-0.262;2023-04-23T00:05:20;50333.82;;;-145.72;100.00
28648;BME280;17137;51.494;-0.262;2023-04-23T00:05:51;50324.94;;;-145.72;100.00
28648;BME280;17137;51.494;-0.262;2023-04-23T00:06:23;50325.56;;;-145.72;100.00
28648;BME280;17137;51.494;-0.262;2023-04-23T00:06:54;50316.81;;;-145.72;100.00
28648;BME280;17137;51.494;-0.262;2023-04-23T00:07:25;50328.15;;;-145.72;100.00
28648;BME280;17137;51.494;-0.262;2023-04-23T00:07:57;50320.01;;;-145.72;100.00
28648;BME280;17137;51.494;-0.262;2023-04-23T00:08:29;50328.27;;;-145.72;100.00
28648;BME280;17137;51.494;-0.262;2023-04-23T00:09:01;50317.79;;;-145.72;100.00
28648;BME280;17137;51.494;-0.262;2023-04-23T00:09:32;50335.79;;;-145.72;100.00
28648;BME280;17137;51.494;-0.262;2023-04-23T00:10:04;50335.05;;;-145.72;100.00
28648;BME280;17137;51.494;-0.262;2023-04-23T00:10:35;50339.73;;;-145.72;100.00
28648;BME280;17137;51.494;-0.262;2023-04-23T00:11:07;50347.25;;;-145.72;100.00
28648;BME280;17137;51.494;-0.262;2023-04-23T00:11:38;50340.84;;;-145.72;100.00
28648;BME280;17137;51.494;-0.262;2023-04-23T00:12:09;50342.20;;;-145.72;100.00
28648;BME280;17137;51.494;-0.262;2023-04-23T00:12:40;50335.54;;;-145.72;100.00
28648;BME280;17137;51.494;-0.262;2023-04-23T00:13:11;50327.78;;;-145.72;100.00
28648;BME280;17137;51.494;-0.262;2023-04-23T00:13:42;50322.97;;;-145.72;100.00
28648;BME280;17137;51.494;-0.262;2023-04-23T00:14:13;50333.94;;;-145.72;100.00
28648;BME280;17137;51.494;-0.262;2023-04-23T00:14:44;50329.01;;;-145.72;100.00
28648;BME280;17137;51.494;-0.262;2023-04-23T00:15:15;50324.45;;;-145.72;100.00
28648;BME280;17137;51.494;-0.262;2023-04-23T00:15:45;50332.95;;;-145.72;100.00
28648;BME280;17137;51.494;-0.262;2023-04-23T00:16:18;50335.79;;;-145.72;100.00
28648;BME280;17137;51.494;-0.262;2023-04-23T00:16:50;50330.73;;;-145.72;100.00
28648;BME280;17137;51.494;-0.262;2023-04-23T00:17:20;50323.09;;;-145.72;100.00
28648;BME280;17137;51.494;-0.262;2023-04-23T00:17:51;50336.77;;;-145.72;100.00
28648;BME280;17137;51.494;-0.262;2023-04-23T00:18:21;50326.91;;;-145.72;100.00
28648;BME280;17137;51.494;-0.262;2023-04-23T00:18:51;50337.14;;;-145.72;100.00
28648;BME280;17137;51.494;-0.262;2023-04-23T00:19:22;50318.65;;;-145.72;100.00
28648;BME280;17137;51.494;-0.262;2023-04-23T00:19:52;50328.52;;;-145.72;100.00
28648;BME280;17137;51.494;-0.262;2023-04-23T00:20:23;50328.76;;;-145.72;100.00
28648;BME280;17137;51.494;-0.262;2023-04-23T00:20:53;50320.87;;;-145.72;100.00
28648;BME280;17137;51.494;-0.262;2023-04-23T00:21:23;50326.67;;;-145.72;100.00
28648;BME280;17137;51.494;-0.262;2023-04-23T00:21:54;50327.16;;;-145.72;100.00
28648;BME280;17137;51.494;-0.262;2023-04-23T00:22:24;50314.09;;;-145.72;100.00
28648;BME280;17137;51.494;-0.262;2023-04-23T00:22:54;50329.99;;;-145.72;100.00
28648;BME280;17137;51.494;-0.262;2023-04-23T00:23:24;50321.61;;;-145.72;100.00
28648;BME280;17137;51.494;-0.262;2023-04-23T00:23:55;50321.86;;;-145.72;100.00
28648;BME280;17137;51.494;-0.262;2023-04-23T00:24:25;50316.93;;;-145.72;100.00
28648;BME280;17137;51.494;-0.262;2023-04-23T00:24:56;50323.83;;;-145.72;100.00
28648;BME280;17137;51.494;-0.262;2023-04-23T00:25:26;50321.98;;;-145.72;100.00
28648;BME280;17137;51.494;-0.262;2023-04-23T00:25:57;50329.75;;;-145.72;100.00
28648;BME280;17137;51.494;-0.262;2023-04-23T00:26:27;50335.67;;;-145.72;100.00
28648;BME280;17137;51.494;-0.262;2023-04-23T00:26:57;50328.52;;;-145.72;100.00
28648;BME280;17137;51.494;-0.262;2023-04-23T00:27:28;50327.53;;;-145.72;100.00
28648;BME280;17137;51.494;-0.262;2023-04-23T00:27:58;50330.36;;;-145.72;100.00
28648;BME280;17137;51.494;-0.262;2023-04-23T00:28:28;50335.91;;;-145.72;100.00
28648;BME280;17137;51.494;-0.262;2023-04-23T00:28:59;50327.28;;;-145.72;100.00
28648;BME280;17137;51.494;-0.262;2023-04-23T00:29:29;50300.41;;;-145.72;100.00
28648;BME280;17137;51.494;-0.262;2023-04-23T00:29:59;50321.00;;;-145.72;100.00
28648;BME280;17137;51.494;-0.262;2023-04-23T00:30:30;50328.52;;;-145.72;100.00
28648;BME280;17137;51.494;-0.262;2023-04-23T00:31:00;50330.24;;;-145.72;100.00
28648;BME280;17137;51.494;-0.262;2023-04-23T00:31:30;50321.49;;;-145.72;100.00
28648;BME280;17137;51.494;-0.262;2023-04-23T00:32:01;50318.04;;;-145.72;100.00
28648;BME280;17137;51.494;-0.262;2023-04-23T00:32:31;50331.35;;;-145.72;100.00
28648;BME280;17137;51.494;-0.262;2023-04-23T00:33:01;50322.23;;;-145.72;100.00
28648;BME280;17137;51.494;-0.262;2023-04-23T00:33:32;50329.13;;;-145.72;100.00
28648;BME280;17137;51.494;-0.262;2023-04-23T00:34:02;50318.04;;;-145.72;100.00
28648;BME280;17137;51.494;-0.262;2023-04-23T00:34:32;50323.71;;;-145.72;100.00
28648;BME280;17137;51.494;-0.262;2023-04-23T00:35:03;50329.01;;;-145.72;100.00
28648;BME280;17137;51.494;-0.262;2023-04-23T00:35:34;50328.02;;;-145.72;100.00
28648;BME280;17137;51.494;-0.262;2023-04-23T00:36:05;50334.68;;;-145.72;100.00
28648;BME280;17137;51.494;-0.262;2023-04-23T00:36:40;50317.79;;;-145.72;100.00
28648;BME280;17137;51.494;-0.262;2023-04-23T00:37:10;50332.34;;;-145.72;100.00
28648;BME280;17137;51.494;-0.262;2023-04-23T00:37:41;50320.26;;;-145.72;100.00
28648;BME280;17137;51.494;-0.262;2023-04-23T00:38:11;50328.89;;;-145.72;100.00
28648;BME280;17137;51.494;-0.262;2023-04-23T00:38:41;50341.09;;;-145.72;100.00
28648;BME280;17137;51.494;-0.262;2023-04-23T00:39:11;50328.64;;;-145.72;100.00
28648;BME280;17137;51.494;-0.262;2023-04-23T00:39:42;50320.50;;;-145.72;100.00
28648;BME280;17137;51.494;-0.262;2023-04-23T00:40:13;50333.45;;;-145.72;100.00
28648;BME280;17137;51.494;-0.262;2023-04-23T00:40:43;50333.69;;;-145.72;100.00
28648;BME280;17137;51.494;-0.262;2023-04-23T00:41:14;50330.86;;;-145.72;100.00
28648;BME280;17137;51.494;-0.262;2023-04-23T00:41:45;50321.00;;;-145.72;100.00
28648;BME280;17137;51.494;-0.262;2023-04-23T00:42:15;50330.61;;;-145.72;100.00
28648;BME280;17137;51.494;-0.262;2023-04-23T00:42:45;50323.34;;;-145.72;100.00
28648;BME280;17137;51.494;-0.262;2023-04-23T00:43:16;50338.99;;;-145.72;100.00
28648;BME280;17137;51.494;-0.262;2023-04-23T00:43:46;50336.77;;;-145.72;100.00
28648;BME280;17137;51.494;-0.262;2023-04-23T00:44:16;50344.66;;;-145.72;100.00
28648;BME280;17137;51.494;-0.262;2023-04-23T00:44:47;50330.24;;;-145.72;100.00
28648;BME280;17137;51.494;-0.262;2023-04-23T00:45:19;50338.25;;;-145.72;100.00
28648;BME280;17137;51.494;-0.262;2023-04-23T00:45:50;50320.26;;;-145.72;100.00
28648;BME280;17137;51.494;-0.262;2023-04-23T00:46:20;50327.28;;;-145.72;100.00
28648;BME280;17137;51.494;-0.262;2023-04-23T00:46:51;50326.79;;;-145.72;100.00
28648;BME280;17137;51.494;-0.262;2023-04-23T00:47:23;50337.27;;;-145.72;100.00
28648;BME280;17137;51.494;-0.262;2023-04-23T00:47:53;50335.67;;;-145.72;100.00
28648;BME280;17137;51.494;-0.262;2023-04-23T00:48:25;50326.79;;;-145.72;100.00
28648;BME280;17137;51.494;-0.262;2023-04-23T00:48:55;50334.43;;;-145.72;100.00
28648;BME280;17137;51.494;-0.262;2023-04-23T00:49:26;50323.34;;;-145.72;100.00
28648;BME280;17137;51.494;-0.262;2023-04-23T00:49:58;50338.01;;;-145.72;100.00
28648;BME280;17137;51.494;-0.262;2023-04-23T00:50:29;50333.94;;;-145.72;100.00
28648;BME280;17137;51.494;-0.262;2023-04-23T00:51:02;50326.54;;;-145.72;100.00
28648;BME280;17137;51.494;-0.262;2023-04-23T00:51:33;50336.53;;;-145.72;100.00
28648;BME280;17137;51.494;-0.262;2023-04-23T00:52:03;50331.35;;;-145.72;100.00
28648;BME280;17137;51.494;-0.262;2023-04-23T00:52:34;50330.36;;;-145.72;100.00
28648;BME280;17137;51.494;-0.262;2023-04-23T00:53:04;50341.95;;;-145.72;100.00
28648;BME280;17137;51.494;-0.262;2023-04-23T00:53:34;50339.24;;;-145.72;100.00
28648;BME280;17137;51.494;-0.262;2023-04-23T00:54:05;50340.60;;;-145.72;100.00
28648;BME280;17137;51.494;-0.262;2023-04-23T00:54:35;50331.60;;;-145.72;100.00
28648;BME280;17137;51.494;-0.262;2023-04-23T00:55:06;50334.31;;;-145.72;100.00
28648;BME280;17137;51.494;-0.262;2023-04-23T00:55:37;50341.21;;;-145.72;100.00
28648;BME280;17137;51.494;-0.262;2023-04-23T00:56:07;50337.02;;;-145.72;100.00
28648;BME280;17137;51.494;-0.262;2023-04-23T00:56:38;50339.36;;;-145.72;100.00
28648;BME280;17137;51.494;-0.262;2023-04-23T00:57:08;50347.87;;;-145.72;100.00
28648;BME280;17137;51.494;-0.262;2023-04-23T00:57:39;50345.03;;;-145.72;100.00
28648;BME280;17137;51.494;-0.262;2023-04-23T00:58:10;50347.75;;;-145.72;100.00
28648;BME280;17137;51.494;-0.262;2023-04-23T00:58:41;50334.68;;;-145.72;100.00
28648;BME280;17137;51.494;-0.262;2023-04-23T00:59:11;50347.01;;;-145.72;100.00
28648;BME280;17137;51.494;-0.262;2023-04-23T00:59:42;50352.18;;;-145.72;100.00
28648;BME280;17137;51.494;-0.262;2023-04-23T01:00:13;50335.42;;;-145.72;100.00
28648;BME280;17137;51.494;-0.262;2023-04-23T01:00:45;50348.36;;;-145.72;100.00
28648;BME280;17137;51.494;-0.262;2023-04-23T01:01:16;50342.94;;;-145.72;100.00
28648;BME280;17137;51.494;-0.262;2023-04-23T01:01:46;50346.76;;;-145.72;100.00
28648;BME280;17137;51.494;-0.262;2023-04-23T01:02:17;50333.82;;;-145.72;100.00
28648;BME280;17137;51.494;-0.262;2023-04-23T01:02:47;50321.49;;;-145.72;100.00
28648;BME280;17137;51.494;-0.262;2023-04-23T01:03:19;50335.05;;;-145.72;100.00
28648;BME280;17137;51.494;-0.262;2023-04-23T01:03:50;50325.56;;;-145.72;100.00
28648;BME280;17137;51.494;-0.262;2023-04-23T01:04:23;50332.46;;;-145.72;100.00
28648;BME280;17137;51.494;-0.262;2023-04-23T01:04:57;50346.14;;;-145.72;100.00
28648;BME280;17137;51.494;-0.262;2023-04-23T01:05:30;50338.38;;;-145.72;100.00
28648;BME280;17137;51.494;-0.262;2023-04-23T01:06:00;50327.90;;;-145.72;100.00
28648;BME280;17137;51.494;-0.262;2023-04-23T01:06:31;50337.02;;;-145.72;100.00
28648;BME280;17137;51.494;-0.262;2023-04-23T01:07:02;50338.50;;;-145.72;100.00
28648;BME280;17137;51.494;-0.262;2023-04-23T01:07:34;50337.27;;;-145.72;100.00
28648;BME280;17137;51.494;-0.262;2023-04-23T01:08:05;50326.79;;;-145.72;100.00
28648;BME280;17137;51.494;-0.262;2023-04-23T01:08:36;50335.54;;;-145.72;100.00
28648;BME280;17137;51.494;-0.262;2023-04-23T01:09:08;50330.73;;;-145.72;100.00
28648;BME280;17137;51.494;-0.262;2023-04-23T01:09:38;50328.89;;;-145.72;100.00
28648;BME280;17137;51.494;-0.262;2023-04-23T01:10:11;50330.49;;;-145.72;100.00
28648;BME280;17137;51.494;-0.262;2023-04-23T01:10:42;50312.37;;;-145.72;100.00
28648;BME280;17137;51.494;-0.262;2023-04-23T01:11:12;50329.38;;;-145.72;100.00
28648;BME280;17137;51.494;-0.262;2023-04-23T01:11:43;50325.19;;;-145.72;100.00
28648;BME280;17137;51.494;-0.262;2023-04-23T01:12:14;50324.08;;;-145.72;100.00
28648;BME280;17137;51.494;-0.262;2023-04-23T01:12:46;50316.81;;;-145.72;100.00
28648;BME280;17137;51.494;-0.262;2023-04-23T01:13:17;50329.99;;;-145.72;100.00
28648;BME280;17137;51.494;-0.262;2023-04-23T01:13:47;50325.56;;;-145.72;100.00
28648;BME280;17137;51.494;-0.262;2023-04-23T01:14:18;50321.98;;;-145.72;100.00
28648;BME280;17137;51.494;-0.262;2023-04-23T01:14:48;50315.20;;;-145.72;100.00
28648;BME280;17137;51.494;-0.262;2023-04-23T01:15:19;50316.19;;;-145.72;100.00
28648;BME280;17137;51.494;-0.262;2023-04-23T01:15:55;50327.04;;;-145.72;100.00
28648;BME280;17137;51.494;-0.262;2023-04-23T01:16:25;50331.60;;;-145.72;100.00
28648;BME280;17137;51.494;-0.262;2023-04-23T01:16:55;50325.56;;;-145.72;100.00
28648;BME280;17137;51.494;-0.262;2023-04-23T01:17:26;50317.54;;;-145.72;100.00
28648;BME280;17137;51.494;-0.262;2023-04-23T01:17:56;50320.75;;;-145.72;100.00
28648;BME280;17137;51.494;-0.262;2023-04-23T01:18:27;50331.84;;;-145.72;100.00
28648;BME280;17137;51.494;-0.262;2023-04-23T01:18:57;50325.43;;;-145.72;99.95
28648;BME280;17137;51.494;-0.262;2023-04-23T01:19:28;50338.50;;;-145.72;99.95
28648;BME280;17137;51.494;-0.262;2023-04-23T01:19:58;50320.38;;;-145.72;99.81
28648;BME280;17137;51.494;-0.262;2023-04-23T01:20:28;50314.83;;;-145.72;99.49
28648;BME280;17137;51.494;-0.262;2023-04-23T01:20:59;50323.34;;;-145.72;99.12
28648;BME280;17137;51.494;-0.262;2023-04-23T01:21:29;50329.01;;;-145.72;99.49
28648;BME280;17137;51.494;-0.262;2023-04-23T01:22:00;50306.33;;;-145.72;99.32
28648;BME280;17137;51.494;-0.262;2023-04-23T01:22:32;50312.00;;;-145.72;99.25
28648;BME280;17137;51.494;-0.262;2023-04-23T01:23:03;50321.12;;;-145.72;99.33
28648;BME280;17137;51.494;-0.262;2023-04-23T01:23:33;50328.15;;;-145.72;99.19
28648;BME280;17137;51.494;-0.262;2023-04-23T01:24:04;50315.33;;;-145.72;98.88
28648;BME280;17137;51.494;-0.262;2023-04-23T01:24:35;50318.53;;;-145.72;99.02
28648;BME280;17137;51.494;-0.262;2023-04-23T01:25:07;50314.71;;;-145.72;98.73
28648;BME280;17137;51.494;-0.262;2023-04-23T01:25:37;50321.37;;;-145.72;98.69
28648;BME280;17137;51.494;-0.262;2023-04-23T01:26:07;50312.49;;;-145.72;98.68
28648;BME280;17137;51.494;-0.262;2023-04-23T01:26:38;50317.42;;;-145.72;98.71
28648;BME280;17137;51.494;-0.262;2023-04-23T01:27:09;50308.42;;;-145.72;97.98
28648;BME280;17137;51.494;-0.262;2023-04-23T01:27:40;50315.82;;;-145.72;97.98
28648;BME280;17137;51.494;-0.262;2023-04-23T01:28:10;50313.48;;;-145.72;97.46
28648;BME280;17137;51.494;-0.262;2023-04-23T01:28:42;50308.18;;;-145.72;97.49
28648;BME280;17137;51.494;-0.262;2023-04-23T01:29:13;50315.33;;;-145.72;97.49
28648;BME280;17137;51.494;-0.262;2023-04-23T01:29:43;50318.16;;;-145.72;97.42
28648;BME280;17137;51.494;-0.262;2023-04-23T01:30:15;50321.74;;;-145.72;98.17
28648;BME280;17137;51.494;-0.262;2023-04-23T01:30:45;50332.83;;;-145.72;98.26
28648;BME280;17137;51.494;-0.262;2023-04-23T01:31:17;50329.38;;;-145.72;97.86
28648;BME280;17137;51.494;-0.262;2023-04-23T01:31:48;50316.31;;;-145.72;97.78
28648;BME280;17137;51.494;-0.262;2023-04-23T01:32:19;50319.64;;;-145.72;97.77
28648;BME280;17137;51.494;-0.262;2023-04-23T01:32:50;50314.46;;;-145.72;97.50
28648;BME280;17137;51.494;-0.262;2023-04-23T01:33:21;50314.59;;;-145.72;97.69
28648;BME280;17137;51.494;-0.262;2023-04-23T01:33:52;50319.52;;;-145.72;97.53
28648;BME280;17137;51.494;-0.262;2023-04-23T01:34:23;50320.75;;;-145.72;97.41
28648;BME280;17137;51.494;-0.262;2023-04-23T01:34:54;50316.31;;;-145.72;97.71
28648;BME280;17137;51.494;-0.262;2023-04-23T01:35:26;50311.26;;;-145.72;97.93
28648;BME280;17137;51.494;-0.262;2023-04-23T01:35:56;50306.45;;;-145.72;97.86
28648;BME280;17137;51.494;-0.262;2023-04-23T01:36:27;50317.54;;;-145.72;97.79
28648;BME280;17137;51.494;-0.262;2023-04-23T01:36:59;50301.15;;;-145.72;97.51
28648;BME280;17137;51.494;-0.262;2023-04-23T01:37:30;50310.89;;;-145.72;97.54
28648;BME280;17137;51.494;-0.262;2023-04-23T01:38:02;50309.04;;;-145.72;97.83
28648;BME280;17137;51.494;-0.262;2023-04-23T01:38:33;50320.75;;;-145.72;97.87
28648;BME280;17137;51.494;-0.262;2023-04-23T01:39:05;50309.66;;;-145.72;97.68
28648;BME280;17137;51.494;-0.262;2023-04-23T01:39:35;50315.20;;;-145.72;98.34
28648;BME280;17137;51.494;-0.262;2023-04-23T01:40:07;50321.98;;;-145.72;98.60
28648;BME280;17137;51.494;-0.262;2023-04-23T01:40:37;50323.34;;;-145.72;98.83
28648;BME280;17137;51.494;-0.262;2023-04-23T01:41:08;50318.04;;;-145.72;98.92
28648;BME280;17137;51.494;-0.262;2023-04-23T01:41:39;50311.87;;;-145.72;99.02
28648;BME280;17137;51.494;-0.262;2023-04-23T01:42:10;50319.02;;;-145.72;99.22
28648;BME280;17137;51.494;-0.262;2023-04-23T01:42:40;50322.35;;;-145.72;99.62
28648;BME280;17137;51.494;-0.262;2023-04-23T01:43:10;50330.36;;;-145.72;99.90
28648;BME280;17137;51.494;-0.262;2023-04-23T01:43:41;50336.28;;;-145.72;100.00
28648;BME280;17137;51.494;-0.262;2023-04-23T01:44:11;50331.97;;;-145.72;100.00
28648;BME280;17137;51.494;-0.262;2023-04-23T01:44:42;50321.61;;;-145.72;100.00
28648;BME280;17137;51.494;-0.262;2023-04-23T01:45:13;50321.24;;;-145.72;100.00
28648;BME280;17137;51.494;-0.262;2023-04-23T01:45:43;50325.19;;;-145.72;100.00
28648;BME280;17137;51.494;-0.262;2023-04-23T01:46:14;50327.53;;;-145.72;100.00
28648;BME280;17137;51.494;-0.262;2023-04-23T01:46:44;50323.09;;;-145.72;100.00
28648;BME280;17137;51.494;-0.262;2023-04-23T01:47:15;50330.24;;;-145.72;100.00
28648;BME280;17137;51.494;-0.262;2023-04-23T01:47:46;50340.10;;;-145.72;100.00
28648;BME280;17137;51.494;-0.262;2023-04-23T01:48:16;50336.04;;;-145.72;100.00
28648;BME280;17137;51.494;-0.262;2023-04-23T01:48:47;50328.27;;;-145.72;100.00
28648;BME280;17137;51.494;-0.262;2023-04-23T01:49:17;50338.75;;;-145.72;100.00
28648;BME280;17137;51.494;-0.262;2023-04-23T01:49:48;50328.15;;;-145.72;100.00
28648;BME280;17137;51.494;-0.262;2023-04-23T01:50:18;50352.43;;;-145.72;100.00
28648;BME280;17137;51.494;-0.262;2023-04-23T01:50:50;50325.56;;;-145.72;100.00
28648;BME280;17137;51.494;-0.262;2023-04-23T01:51:20;50323.71;;;-145.72;100.00
28648;BME280;17137;51.494;-0.262;2023-04-23T01:51:50;50324.08;;;-145.72;100.00
28648;BME280;17137;51.494;-0.262;2023-04-23T01:52:21;50329.26;;;-145.72;100.00
28648;BME280;17137;51.494;-0.262;2023-04-23T01:52:51;50336.04;;;-145.72;100.00
28648;BME280;17137;51.494;-0.262;2023-04-23T01:53:21;50338.13;;;-145.72;100.00
28648;BME280;17137;51.494;-0.262;2023-04-23T01:53:51;50331.23;;;-145.72;100.00
28648;BME280;17137;51.494;-0.262;2023-04-23T01:54:22;50330.61;;;-145.72;100.00
28648;BME280;17137;51.494;-0.262;2023-04-23T01:54:52;50330.36;;;-145.72;100.00
28648;BME280;17137;51.494;-0.262;2023-04-23T01:55:22;50334.80;;;-145.72;100.00
28648;BME280;17137;51.494;-0.262;2023-04-23T01:55:54;50323.22;;;-145.72;100.00
28648;BME280;17137;51.494;-0.262;2023-04-23T01:56:26;50334.06;;;-145.72;100.00
28648;BME280;17137;51.494;-0.262;2023-04-23T01:56:57;50337.02;;;-145.72;100.00
28648;BME280;17137;51.494;-0.262;2023-04-23T01:57:28;50332.21;;;-145.72;100.00
28648;BME280;17137;51.494;-0.262;2023-04-23T01:58:03;50333.20;;;-145.72;100.00
28648;BME280;17137;51.494;-0.262;2023-04-23T01:58:33;50324.69;;;-145.72;100.00
28648;BME280;17137;51.494;-0.262;2023-04-23T01:59:04;50327.53;;;-145.72;100.00
28648;BME280;17137;51.494;-0.262;2023-04-23T01:59:34;50332.21;;;-145.72;100.00
28648;BME280;17137;51.494;-0.262;2023-04-23T02:00:08;50342.69;;;-145.72;100.00
28648;BME280;17137;51.494;-0.262;2023-04-23T02:00:38;50332.95;;;-145.72;100.00
28648;BME280;17137;51.494;-0.262;2023-04-23T02:01:09;50334.06;;;-145.72;100.00
28648;BME280;17137;51.494;-0.262;2023-04-23T02:01:41;50336.40;;;-145.72;100.00
28648;BME280;17137;51.494;-0.262;2023-04-23T02:02:12;50327.53;;;-145.72;100.00
28648;BME280;17137;51.494;-0.262;2023-04-23T02:02:43;50330.86;;;-145.72;100.00
28648;BME280;17137;51.494;-0.262;2023-04-23T02:03:14;50331.72;;;-145.72;100.00
28648;BME280;17137;51.494;-0.262;2023-04-23T02:03:44;50341.34;;;-145.72;100.00
28648;BME280;17137;51.494;-0.262;2023-04-23T02:04:16;50321.49;;;-145.72;100.00
28648;BME280;17137;51.494;-0.262;2023-04-23T02:04:47;50334.68;;;-145.72;100.00
28648;BME280;17137;51.494;-0.262;2023-04-23T02:05:19;50318.04;;;-145.72;100.00
28648;BME280;17137;51.494;-0.262;2023-04-23T02:05:51;50332.34;;;-145.72;100.00
28648;BME280;17137;51.494;-0.262;2023-04-23T02:06:22;50339.24;;;-145.72;100.00
28648;BME280;17137;51.494;-0.262;2023-04-23T02:06:53;50325.93;;;-145.72;100.00
28648;BME280;17137;51.494;-0.262;2023-04-23T02:07:23;50328.89;;;-145.72;100.00
28648;BME280;17137;51.494;-0.262;2023-04-23T02:07:54;50329.01;;;-145.72;100.00
28648;BME280;17137;51.494;-0.262;2023-04-23T02:08:25;50332.71;;;-145.72;100.00
28648;BME280;17137;51.494;-0.262;2023-04-23T02:08:55;50329.75;;;-145.72;100.00
28648;BME280;17137;51.494;-0.262;2023-04-23T02:09:30;50337.27;;;-145.72;100.00
28648;BME280;17137;51.494;-0.262;2023-04-23T02:10:01;50339.73;;;-145.72;100.00
28648;BME280;17137;51.494;-0.262;2023-04-23T02:10:31;50330.61;;;-145.72;100.00
28648;BME280;17137;51.494;-0.262;2023-04-23T02:11:02;50331.23;;;-145.72;100.00
28648;BME280;17137;51.494;-0.262;2023-04-23T02:11:32;50328.76;;;-145.72;100.00
28648;BME280;17137;51.494;-0.262;2023-04-23T02:12:03;50324.57;;;-145.72;100.00
28648;BME280;17137;51.494;-0.262;2023-04-23T02:12:33;50336.65;;;-145.72;100.00
28648;BME280;17137;51.494;-0.262;2023-04-23T02:13:04;50330.49;;;-145.72;100.00
28648;BME280;17137;51.494;-0.262;2023-04-23T02:13:34;50332.58;;;-145.72;100.00
28648;BME280;17137;51.494;-0.262;2023-04-23T02:14:06;50339.36;;;-145.72;100.00
28648;BME280;17137;51.494;-0.262;2023-04-23T02:14:36;50316.56;;;-145.72;100.00
28648;BME280;17137;51.494;-0.262;2023-04-23T02:15:09;50327.65;;;-145.72;100.00
28648;BME280;17137;51.494;-0.262;2023-04-23T02:15:39;50330.61;;;-145.72;100.00
28648;BME280;17137;51.494;-0.262;2023-04-23T02:16:10;50331.84;;;-145.72;100.00
28648;BME280;17137;51.494;-0.262;2023-04-23T02:16:40;50347.13;;;-145.72;100.00
28648;BME280;17137;51.494;-0.262;2023-04-23T02:17:11;50345.77;;;-145.72;100.00
28648;BME280;17137;51.494;-0.262;2023-04-23T02:17:41;50338.99;;;-145.72;100.00
28648;BME280;17137;51.494;-0.262;2023-04-23T02:18:11;50337.39;;;-145.72;100.00
28648;BME280;17137;51.494;-0.262;2023-04-23T02:18:41;50341.83;;;-145.72;100.00
28648;BME280;17137;51.494;-0.262;2023-04-23T02:19:12;50336.77;;;-145.72;100.00
28648;BME280;17137;51.494;-0.262;2023-04-23T02:19:42;50327.53;;;-145.72;99.63
28648;BME280;17137;51.494;-0.262;2023-04-23T02:20:12;50333.82;;;-145.72;99.46
28648;BME280;17137;51.494;-0.262;2023-04-23T02:20:42;50336.28;;;-145.72;99.57
28648;BME280;17137;51.494;-0.262;2023-04-23T02:21:13;50330.49;;;-145.72;99.68
28648;BME280;17137;51.494;-0.262;2023-04-23T02:21:43;50334.43;;;-145.72;99.59
28648;BME280;17137;51.494;-0.262;2023-04-23T02:22:13;50319.52;;;-145.72;99.22
28648;BME280;17137;51.494;-0.262;2023-04-23T02:22:45;50327.78;;;-145.72;99.17
28648;BME280;17137;51.494;-0.262;2023-04-23T02:23:15;50331.35;;;-145.72;98.84
28648;BME280;17137;51.494;-0.262;2023-04-23T02:23:46;50324.20;;;-145.72;98.85
28648;BME280;17137;51.494;-0.262;2023-04-23T02:24:16;50334.68;;;-145.72;98.64
28648;BME280;17137;51.494;-0.262;2023-04-23T02:24:46;50324.57;;;-145.72;98.30
28648;BME280;17137;51.494;-0.262;2023-04-23T02:25:17;50332.95;;;-145.72;98.34
28648;BME280;17137;51.494;-0.262;2023-04-23T02:25:48;50345.28;;;-145.72;98.52
28648;BME280;17137;51.494;-0.262;2023-04-23T02:26:18;50348.73;;;-145.72;98.66
28648;BME280;17137;51.494;-0.262;2023-04-23T02:26:48;50333.69;;;-145.72;98.70
28648;BME280;17137;51.494;-0.262;2023-04-23T02:27:19;50331.60;;;-145.72;98.40
28648;BME280;17137;51.494;-0.262;2023-04-23T02:27:49;50335.30;;;-145.72;98.48
28648;BME280;17137;51.494;-0.262;2023-04-23T02:28:20;50335.67;;;-145.72;98.39
28648;BME280;17137;51.494;-0.262;2023-04-23T02:28:50;50344.91;;;-145.72;98.37
28648;BME280;17137;51.494;-0.262;2023-04-23T02:29:21;50333.20;;;-145.72;97.43
28648;BME280;17137;51.494;-0.262;2023-04-23T02:29:51;50341.71;;;-145.72;97.75
28648;BME280;17137;51.494;-0.262;2023-04-23T02:30:22;50343.55;;;-145.72;97.83
28648;BME280;17137;51.494;-0.262;2023-04-23T02:30:52;50333.20;;;-145.72;97.62
28648;BME280;17137;51.494;-0.262;2023-04-23T02:31:22;50335.91;;;-145.72;97.27
28648;BME280;17137;51.494;-0.262;2023-04-23T02:31:52;50318.28;;;-145.72;96.86
28648;BME280;17137;51.494;-0.262;2023-04-23T02:32:23;50344.79;;;-145.72;97.19
28648;BME280;17137;51.494;-0.262;2023-04-23T02:32:53;50336.16;;;-145.72;96.94
28648;BME280;17137;51.494;-0.262;2023-04-23T02:33:23;50324.82;;;-145.72;96.79
28648;BME280;17137;51.494;-0.262;2023-04-23T02:33:54;50327.65;;;-145.72;96.72
28648;BME280;17137;51.494;-0.262;2023-04-23T02:34:24;50325.31;;;-145.72;96.88
28648;BME280;17137;51.494;-0.262;2023-04-23T02:34:55;50329.87;;;-145.72;97.52
28648;BME280;17137;51.494;-0.262;2023-04-23T02:35:26;50340.72;;;-145.72;97.16
28648;BME280;17137;51.494;-0.262;2023-04-23T02:35:56;50343.92;;;-145.72;97.08